createdAt,value
2018-07-01T00:00:39.443Z,13.24
2018-07-01T00:01:49.149Z,13.17
2018-07-01T00:02:58.854Z,13.09
2018-07-01T00:04:08.840Z,13.16
2018-07-01T00:05:18.828Z,13.11
2018-07-01T00:06:28.538Z,13.11
2018-07-01T00:07:38.539Z,13.08
2018-07-01T00:08:48.512Z,13.12
2018-07-01T00:09:58.229Z,13.06
2018-07-01T00:11:08.191Z,13.09
2018-07-01T00:12:18.179Z,13.01
2018-07-01T00:13:28.144Z,13.09
2018-07-01T00:14:38.098Z,13.01
2018-07-01T00:15:47.816Z,12.99
2018-07-01T00:16:57.792Z,13.02
2018-07-01T00:18:07.511Z,13.02
2018-07-01T00:19:17.243Z,12.93
2018-07-01T00:20:27.212Z,12.93
2018-07-01T00:21:37.169Z,12.91
2018-07-01T00:22:47.139Z,12.88
2018-07-01T00:23:56.834Z,12.88
2018-07-01T00:25:06.554Z,12.87
2018-07-01T00:26:16.521Z,12.94
2018-07-01T00:27:26.221Z,12.91
2018-07-01T00:28:36.198Z,12.83
2018-07-01T00:29:46.172Z,12.81
2018-07-01T00:30:56.142Z,12.9
2018-07-01T00:32:06.104Z,12.9
2018-07-01T00:33:15.824Z,12.88
2018-07-01T00:34:25.518Z,12.9
2018-07-01T00:35:35.489Z,12.93
2018-07-01T00:36:45.455Z,12.84
2018-07-01T00:37:55.409Z,12.84
2018-07-01T00:39:04.856Z,12.81
2018-07-01T00:40:14.308Z,12.75
2018-07-01T00:41:23.757Z,12.76
2018-07-01T00:42:33.731Z,12.78
2018-07-01T00:43:43.696Z,12.75
2018-07-01T00:44:53.400Z,12.73
2018-07-01T00:46:03.125Z,12.8
2018-07-01T00:47:13.105Z,12.78
2018-07-01T00:48:22.815Z,12.8
2018-07-01T00:49:32.520Z,12.73
2018-07-01T00:50:42.483Z,12.65
2018-07-01T00:51:52.442Z,12.72
2018-07-01T00:53:02.149Z,12.68
2018-07-01T00:54:12.114Z,12.63
2018-07-01T00:55:22.069Z,12.55
2018-07-01T00:56:32.033Z,12.58
2018-07-01T00:57:42.010Z,12.61
2018-07-01T00:58:51.966Z,12.5
2018-07-01T01:00:01.932Z,12.5
2018-07-01T01:01:11.912Z,12.47
2018-07-01T01:02:21.897Z,12.5
2018-07-01T01:03:31.872Z,12.53
2018-07-01T01:04:41.867Z,12.55
2018-07-01T01:05:51.835Z,12.48
2018-07-01T01:07:01.289Z,12.48
2018-07-01T01:08:10.996Z,12.5
2018-07-01T01:09:20.947Z,12.44
2018-07-01T01:10:30.908Z,12.4
2018-07-01T01:11:40.842Z,12.39
2018-07-01T01:12:50.287Z,12.37
2018-07-01T01:14:00.245Z,12.37
2018-07-01T01:15:09.955Z,12.32
2018-07-01T01:16:19.916Z,12.36
2018-07-01T01:17:29.627Z,12.3
2018-07-01T01:18:39.581Z,12.28
2018-07-01T01:19:49.542Z,12.33
2018-07-01T01:20:59.000Z,12.28
2018-07-01T01:22:08.981Z,12.25
2018-07-01T01:23:18.955Z,12.23
2018-07-01T01:24:28.981Z,12.2
2018-07-01T01:25:38.693Z,12.12
2018-07-01T01:26:48.428Z,12.26
2018-07-01T01:27:58.385Z,12.23
2018-07-01T01:29:08.339Z,12.21
2018-07-01T01:30:18.065Z,12.11
2018-07-01T01:31:28.038Z,12.08
2018-07-01T01:32:37.495Z,12.07
2018-07-01T01:33:47.451Z,12.11
2018-07-01T01:34:57.158Z,12.05
2018-07-01T01:36:07.116Z,12.08
2018-07-01T01:37:17.097Z,11.97
2018-07-01T01:38:27.055Z,12.02
2018-07-01T01:39:36.508Z,12.02
2018-07-01T01:40:46.466Z,11.97
2018-07-01T01:41:56.179Z,12
2018-07-01T01:43:05.890Z,12.05
2018-07-01T01:44:15.598Z,11.96
2018-07-01T01:45:25.563Z,11.95
2018-07-01T01:46:35.527Z,11.95
2018-07-01T01:47:45.483Z,11.88
2018-07-01T01:48:55.450Z,11.96
2018-07-01T01:50:05.166Z,11.89
2018-07-01T01:51:15.208Z,11.93
2018-07-01T01:52:25.171Z,11.93
2018-07-01T01:53:35.145Z,11.95
2018-07-01T01:54:45.120Z,11.81
2018-07-01T01:55:54.829Z,11.89
2018-07-01T01:57:04.527Z,11.91
2018-07-01T01:58:14.500Z,11.95
2018-07-01T01:59:24.201Z,11.91
2018-07-01T02:00:33.895Z,11.81
2018-07-01T02:01:43.860Z,11.8
2018-07-01T02:02:53.817Z,11.83
2018-07-01T02:04:03.776Z,11.83
2018-07-01T02:05:13.501Z,11.68
2018-07-01T02:06:23.207Z,11.7
2018-07-01T02:07:33.179Z,11.71
2018-07-01T02:08:42.886Z,11.6
2018-07-01T02:09:52.587Z,11.71
2018-07-01T02:11:02.284Z,11.63
2018-07-01T02:12:12.252Z,11.63
2018-07-01T02:13:21.960Z,11.56
2018-07-01T02:14:31.917Z,11.65
2018-07-01T02:15:41.614Z,11.55
2018-07-01T02:16:51.324Z,11.52
2018-07-01T02:18:01.277Z,11.53
2018-07-01T02:19:11.236Z,11.45
2018-07-01T02:20:20.934Z,11.45
2018-07-01T02:21:30.895Z,11.49
2018-07-01T02:22:40.862Z,11.45
2018-07-01T02:23:50.821Z,11.45
2018-07-01T02:25:00.785Z,11.37
2018-07-01T02:26:10.753Z,11.4
2018-07-01T02:27:20.715Z,11.34
2018-07-01T02:28:30.662Z,11.33
2018-07-01T02:29:40.356Z,11.25
2018-07-01T02:30:50.338Z,11.34
2018-07-01T02:32:00.316Z,11.34
2018-07-01T02:33:10.318Z,11.25
2018-07-01T02:34:20.047Z,11.23
2018-07-01T02:35:30.455Z,11.25
2018-07-01T02:36:40.904Z,11.19
2018-07-01T02:37:50.888Z,11.15
2018-07-01T02:39:00.863Z,11.1
2018-07-01T02:40:10.834Z,11.15
2018-07-01T02:41:20.284Z,11.02
2018-07-01T02:42:30.000Z,11.07
2018-07-01T02:43:39.963Z,11.08
2018-07-01T02:44:49.408Z,11.07
2018-07-01T02:45:59.111Z,11.04
2018-07-01T02:47:09.087Z,11.05
2018-07-01T02:48:19.097Z,11.04
2018-07-01T02:49:28.805Z,10.95
2018-07-01T02:50:38.786Z,10.98
2018-07-01T02:51:48.511Z,11.02
2018-07-01T02:52:58.463Z,11
2018-07-01T02:54:08.434Z,11.05
2018-07-01T02:55:18.399Z,10.9
2018-07-01T02:56:28.388Z,11
2018-07-01T02:57:38.102Z,10.86
2018-07-01T02:58:47.810Z,10.9
2018-07-01T02:59:57.782Z,10.89
2018-07-01T03:01:07.762Z,10.9
2018-07-01T03:02:17.730Z,10.9
2018-07-01T03:03:27.718Z,10.9
2018-07-01T03:04:37.693Z,10.97
2018-07-01T03:05:47.662Z,10.9
2018-07-01T03:06:57.640Z,10.95
2018-07-01T03:08:07.636Z,10.94
2018-07-01T03:09:17.366Z,10.92
2018-07-01T03:10:27.071Z,11
2018-07-01T03:11:36.805Z,10.97
2018-07-01T03:12:46.771Z,11
2018-07-01T03:13:56.482Z,11
2018-07-01T03:15:05.929Z,10.97
2018-07-01T03:16:15.894Z,10.92
2018-07-01T03:17:25.596Z,10.92
2018-07-01T03:18:35.306Z,10.94
2018-07-01T03:19:45.264Z,10.89
2018-07-01T03:20:55.232Z,10.94
2018-07-01T03:22:04.967Z,10.9
2018-07-01T03:23:14.937Z,10.87
2018-07-01T03:24:24.893Z,10.87
2018-07-01T03:25:34.593Z,10.84
2018-07-01T03:26:44.553Z,10.83
2018-07-01T03:27:54.505Z,10.86
2018-07-01T03:29:04.454Z,10.86
2018-07-01T03:30:14.427Z,10.9
2018-07-01T03:31:24.395Z,10.89
2018-07-01T03:32:34.346Z,10.82
2018-07-01T03:33:44.311Z,10.83
2018-07-01T03:34:54.269Z,10.9
2018-07-01T03:36:04.229Z,10.82
2018-07-01T03:37:13.932Z,10.75
2018-07-01T03:38:23.905Z,10.83
2018-07-01T03:39:33.854Z,10.82
2018-07-01T03:40:43.551Z,10.87
2018-07-01T03:41:53.505Z,10.83
2018-07-01T03:43:03.199Z,10.83
2018-07-01T03:44:12.901Z,10.9
2018-07-01T03:45:22.862Z,10.9
2018-07-01T03:46:32.813Z,10.89
2018-07-01T03:47:42.787Z,10.92
2018-07-01T03:48:52.485Z,10.89
2018-07-01T03:50:02.457Z,11
2018-07-01T03:51:12.236Z,11
2018-07-01T03:52:21.949Z,10.92
2018-07-01T03:53:31.910Z,11.02
2018-07-01T03:54:41.602Z,11
2018-07-01T03:55:50.787Z,10.97
2018-07-01T03:57:00.490Z,10.98
2018-07-01T03:58:10.452Z,11.1
2018-07-01T03:59:20.436Z,11.02
2018-07-01T04:00:30.434Z,11.08
2018-07-01T04:01:40.463Z,11.13
2018-07-01T04:02:50.504Z,11.1
2018-07-01T04:04:00.498Z,11.08
2018-07-01T04:05:10.475Z,11.19
2018-07-01T04:06:20.196Z,11.25
2018-07-01T04:07:30.165Z,11.25
2018-07-01T04:08:40.136Z,11.25
2018-07-01T04:09:50.092Z,11.27
2018-07-01T04:10:59.802Z,11.27
2018-07-01T04:12:09.755Z,11.27
2018-07-01T04:13:19.463Z,11.3
2018-07-01T04:14:29.170Z,11.3
2018-07-01T04:15:39.135Z,11.45
2018-07-01T04:16:49.106Z,11.44
2018-07-01T04:17:59.057Z,11.41
2018-07-01T04:19:09.016Z,11.48
2018-07-01T04:20:18.969Z,11.51
2018-07-01T04:21:28.671Z,11.6
2018-07-01T04:22:38.638Z,11.53
2018-07-01T04:23:48.341Z,11.58
2018-07-01T04:24:58.040Z,11.67
2018-07-01T04:26:08.004Z,11.67
2018-07-01T04:27:17.976Z,11.74
2018-07-01T04:28:27.932Z,11.85
2018-07-01T04:29:37.935Z,11.81
2018-07-01T04:30:47.901Z,11.78
2018-07-01T04:31:57.606Z,11.78
2018-07-01T04:33:07.577Z,11.88
2018-07-01T04:34:17.543Z,11.93
2018-07-01T04:35:27.504Z,11.88
2018-07-01T04:36:37.459Z,11.95
2018-07-01T04:37:47.444Z,11.97
2018-07-01T04:38:57.403Z,12.05
2018-07-01T04:40:07.118Z,11.99
2018-07-01T04:41:17.074Z,12.14
2018-07-01T04:42:26.782Z,12.15
2018-07-01T04:43:36.515Z,12.17
2018-07-01T04:44:46.475Z,12.29
2018-07-01T04:45:56.435Z,12.26
2018-07-01T04:47:06.387Z,12.25
2018-07-01T04:48:16.361Z,12.32
2018-07-01T04:49:26.482Z,12.32
2018-07-01T04:50:36.450Z,12.35
2018-07-01T04:51:46.416Z,12.44
2018-07-01T04:52:56.376Z,12.45
2018-07-01T04:54:06.360Z,12.5
2018-07-01T04:55:16.739Z,12.5
2018-07-01T04:56:27.029Z,12.54
2018-07-01T04:57:36.999Z,12.62
2018-07-01T04:58:46.703Z,12.63
2018-07-01T04:59:56.678Z,12.65
2018-07-01T05:01:06.387Z,12.69
2018-07-01T05:02:16.649Z,12.75
2018-07-01T05:03:26.816Z,12.8
2018-07-01T05:04:36.778Z,12.73
2018-07-01T05:05:46.740Z,12.86
2018-07-01T05:06:56.735Z,12.86
2018-07-01T05:08:06.705Z,12.83
2018-07-01T05:09:16.668Z,12.87
2018-07-01T05:10:26.651Z,12.94
2018-07-01T05:11:36.119Z,12.93
2018-07-01T05:12:45.819Z,12.99
2018-07-01T05:13:55.843Z,12.99
2018-07-01T05:15:05.551Z,13.11
2018-07-01T05:16:15.278Z,13.12
2018-07-01T05:17:24.989Z,13.27
2018-07-01T05:18:34.685Z,13.21
2018-07-01T05:19:44.661Z,13.26
2018-07-01T05:20:54.359Z,13.28
2018-07-01T05:22:04.327Z,13.37
2018-07-01T05:23:14.304Z,13.36
2018-07-01T05:24:24.281Z,13.36
2018-07-01T05:25:34.055Z,13.45
2018-07-01T05:26:44.018Z,13.5
2018-07-01T05:27:53.987Z,13.47
2018-07-01T05:29:03.950Z,13.68
2018-07-01T05:30:13.656Z,13.76
2018-07-01T05:31:23.923Z,13.8
2018-07-01T05:32:33.623Z,13.79
2018-07-01T05:33:43.481Z,13.87
2018-07-01T05:34:53.709Z,13.86
2018-07-01T05:36:03.442Z,13.87
2018-07-01T05:37:13.426Z,14.01
2018-07-01T05:38:23.437Z,14.04
2018-07-01T05:39:33.135Z,14
2018-07-01T05:40:42.837Z,14.05
2018-07-01T05:41:52.536Z,14.15
2018-07-01T05:43:02.501Z,14.15
2018-07-01T05:44:12.532Z,14.19
2018-07-01T05:45:22.491Z,14.26
2018-07-01T05:46:32.452Z,14.22
2018-07-01T05:47:42.409Z,14.28
2018-07-01T05:48:52.114Z,14.37
2018-07-01T05:50:02.102Z,14.41
2018-07-01T05:51:11.811Z,14.48
2018-07-01T05:52:21.836Z,14.53
2018-07-01T05:53:31.808Z,14.51
2018-07-01T05:54:41.770Z,14.62
2018-07-01T05:55:51.780Z,14.66
2018-07-01T05:57:01.807Z,14.71
2018-07-01T05:58:11.863Z,14.74
2018-07-01T05:59:21.837Z,14.79
2018-07-01T06:00:31.551Z,14.82
2018-07-01T06:01:41.521Z,14.85
2018-07-01T06:02:51.498Z,14.89
2018-07-01T06:04:01.492Z,14.85
2018-07-01T06:05:11.220Z,14.99
2018-07-01T06:06:21.196Z,15.04
2018-07-01T06:07:31.172Z,15
2018-07-01T06:08:41.351Z,15.11
2018-07-01T06:09:51.647Z,15.12
2018-07-01T06:11:01.108Z,15.18
2018-07-01T06:12:10.827Z,15.26
2018-07-01T06:13:20.532Z,15.3
2018-07-01T06:14:30.503Z,15.32
2018-07-01T06:15:40.502Z,15.51
2018-07-01T06:16:50.837Z,15.48
2018-07-01T06:18:00.789Z,15.57
2018-07-01T06:19:10.759Z,15.6
2018-07-01T06:20:20.476Z,15.55
2018-07-01T06:21:30.445Z,15.66
2018-07-01T06:22:40.412Z,15.76
2018-07-01T06:23:50.126Z,15.76
2018-07-01T06:25:00.097Z,15.76
2018-07-01T06:26:10.065Z,15.87
2018-07-01T06:27:19.514Z,15.98
2018-07-01T06:28:29.499Z,16.05
2018-07-01T06:29:39.480Z,15.99
2018-07-01T06:30:49.448Z,16.03
2018-07-01T06:31:59.412Z,16.1
2018-07-01T06:33:09.385Z,16.18
2018-07-01T06:34:19.351Z,16.24
2018-07-01T06:35:29.066Z,16.22
2018-07-01T06:36:39.039Z,16.24
2018-07-01T06:37:49.016Z,16.22
2018-07-01T06:38:58.988Z,16.31
2018-07-01T06:40:08.700Z,16.37
2018-07-01T06:41:18.688Z,16.41
2018-07-01T06:42:28.396Z,16.57
2018-07-01T06:43:38.362Z,16.59
2018-07-01T06:44:48.341Z,16.72
2018-07-01T06:45:58.315Z,16.82
2018-07-01T06:47:08.299Z,16.87
2018-07-01T06:48:18.287Z,16.98
2018-07-01T06:49:28.323Z,17.01
2018-07-01T06:50:38.610Z,17.01
2018-07-01T06:51:48.335Z,17.16
2018-07-01T06:52:58.309Z,17.09
2018-07-01T06:54:08.020Z,17.16
2018-07-01T06:55:18.001Z,17.14
2018-07-01T06:56:28.183Z,17.13
2018-07-01T06:57:38.190Z,17.2
2018-07-01T06:58:48.160Z,17.17
2018-07-01T06:59:57.880Z,17.22
2018-07-01T07:01:07.874Z,17.16
2018-07-01T07:02:17.859Z,17.27
2018-07-01T07:03:27.711Z,17.23
2018-07-01T07:04:37.425Z,17.23
2018-07-01T07:05:47.407Z,17.27
2018-07-01T07:06:57.368Z,17.3
2018-07-01T07:08:07.531Z,17.32
2018-07-01T07:09:17.496Z,17.28
2018-07-01T07:10:27.235Z,17.39
2018-07-01T07:11:37.199Z,17.37
2018-07-01T07:12:47.155Z,17.42
2018-07-01T07:13:57.127Z,17.38
2018-07-01T07:15:07.102Z,17.5
2018-07-01T07:16:16.679Z,17.53
2018-07-01T07:17:26.695Z,17.54
2018-07-01T07:18:36.655Z,17.63
2018-07-01T07:19:46.401Z,17.66
2018-07-01T07:20:56.102Z,17.59
2018-07-01T07:22:06.063Z,17.71
2018-07-01T07:23:16.040Z,17.71
2018-07-01T07:24:26.056Z,17.8
2018-07-01T07:25:36.187Z,17.84
2018-07-01T07:26:46.184Z,17.97
2018-07-01T07:27:55.628Z,18
2018-07-01T07:29:05.628Z,18.13
2018-07-01T07:30:15.601Z,18.12
2018-07-01T07:31:25.575Z,18.23
2018-07-01T07:32:35.044Z,18.12
2018-07-01T07:33:45.029Z,18.09
2018-07-01T07:34:54.995Z,18.09
2018-07-01T07:36:04.716Z,18.06
2018-07-01T07:37:14.698Z,18.02
2018-07-01T07:38:24.685Z,18
2018-07-01T07:39:34.665Z,18.05
2018-07-01T07:40:44.617Z,18.12
2018-07-01T07:41:54.349Z,18.09
2018-07-01T07:43:04.332Z,18.18
2018-07-01T07:44:14.045Z,18.21
2018-07-01T07:45:24.149Z,18.18
2018-07-01T07:46:33.604Z,18.27
2018-07-01T07:47:43.571Z,18.39
2018-07-01T07:48:53.531Z,18.41
2018-07-01T07:50:03.502Z,18.36
2018-07-01T07:51:13.221Z,18.37
2018-07-01T07:52:23.430Z,18.49
2018-07-01T07:53:33.239Z,18.64
2018-07-01T07:54:42.951Z,18.68
2018-07-01T07:55:52.688Z,18.71
2018-07-01T07:57:02.395Z,18.74
2018-07-01T07:58:12.380Z,18.58
2018-07-01T07:59:22.350Z,18.58
2018-07-01T08:00:32.348Z,18.61
2018-07-01T08:01:42.063Z,18.71
2018-07-01T08:02:51.772Z,18.78
2018-07-01T08:04:01.749Z,18.74
2018-07-01T08:05:11.718Z,18.7
2018-07-01T08:06:21.698Z,18.73
2018-07-01T08:07:31.159Z,18.73
2018-07-01T08:08:40.885Z,18.73
2018-07-01T08:09:50.866Z,18.55
2018-07-01T08:11:00.318Z,18.55
2018-07-01T08:12:10.302Z,18.55
2018-07-01T08:13:20.261Z,18.46
2018-07-01T08:14:30.234Z,18.42
2018-07-01T08:15:40.213Z,18.41
2018-07-01T08:16:50.192Z,18.39
2018-07-01T08:18:00.164Z,18.34
2018-07-01T08:19:09.875Z,18.28
2018-07-01T08:20:19.863Z,18.43
2018-07-01T08:21:29.826Z,18.33
2018-07-01T08:22:39.789Z,18.37
2018-07-01T08:23:49.766Z,18.41
2018-07-01T08:24:59.730Z,18.39
2018-07-01T08:26:09.706Z,18.33
2018-07-01T08:27:19.774Z,18.41
2018-07-01T08:28:29.754Z,18.42
2018-07-01T08:29:39.722Z,18.31
2018-07-01T08:30:49.682Z,18.41
2018-07-01T08:31:59.663Z,18.34
2018-07-01T08:33:09.410Z,18.36
2018-07-01T08:34:19.163Z,18.42
2018-07-01T08:35:29.131Z,18.53
2018-07-01T08:36:39.110Z,18.66
2018-07-01T08:37:49.081Z,18.79
2018-07-01T08:38:58.787Z,18.91
2018-07-01T08:40:08.563Z,19.17
2018-07-01T08:41:18.640Z,19.35
2018-07-01T08:42:28.598Z,19.49
2018-07-01T08:43:38.595Z,19.59
2018-07-01T08:44:48.559Z,19.52
2018-07-01T08:45:58.522Z,19.67
2018-07-01T08:47:08.269Z,19.78
2018-07-01T08:48:18.271Z,20.18
2018-07-01T08:49:28.246Z,20.5
2018-07-01T08:50:38.209Z,20.74
2018-07-01T08:51:48.190Z,21.01
2018-07-01T08:52:57.908Z,21.29
2018-07-01T08:54:07.878Z,21.5
2018-07-01T08:55:17.853Z,21.74
2018-07-01T08:56:27.834Z,22.04
2018-07-01T08:57:37.797Z,22.23
2018-07-01T08:58:47.506Z,22.56
2018-07-01T08:59:57.225Z,22.86
2018-07-01T09:01:07.188Z,23.25
2018-07-01T09:02:17.175Z,23.52
2018-07-01T09:03:27.143Z,23.59
2018-07-01T09:04:36.877Z,23.73
2018-07-01T09:05:46.615Z,23.88
2018-07-01T09:06:56.606Z,24.25
2018-07-01T09:08:06.582Z,24.07
2018-07-01T09:09:16.035Z,24.18
2018-07-01T09:10:25.250Z,24.53
2018-07-01T09:11:35.222Z,24.34
2018-07-01T09:12:45.197Z,24.37
2018-07-01T09:13:55.168Z,24.38
2018-07-01T09:15:04.898Z,24.24
2018-07-01T09:16:14.623Z,24.31
2018-07-01T09:17:24.755Z,24.04
2018-07-01T09:18:34.745Z,23.44
2018-07-01T09:19:44.460Z,23.4
2018-07-01T09:20:54.187Z,23.33
2018-07-01T09:22:04.171Z,23.23
2018-07-01T09:23:14.154Z,23.47
2018-07-01T09:24:24.140Z,23.64
2018-07-01T09:25:34.130Z,23.84
2018-07-01T09:26:44.126Z,23.81
2018-07-01T09:27:54.105Z,24.03
2018-07-01T09:29:03.970Z,23.95
2018-07-01T09:30:14.193Z,23.84
2018-07-01T09:31:24.183Z,23.73
2018-07-01T09:32:33.936Z,23.7
2018-07-01T09:33:43.941Z,23.73
2018-07-01T09:34:53.666Z,23.69
2018-07-01T09:36:03.386Z,23.63
2018-07-01T09:37:13.396Z,23.66
2018-07-01T09:38:23.375Z,23.79
2018-07-01T09:39:33.364Z,24
2018-07-01T09:40:43.360Z,24.24
2018-07-01T09:41:53.331Z,24.26
2018-07-01T09:43:03.315Z,24.34
2018-07-01T09:44:13.303Z,24.22
2018-07-01T09:45:22.761Z,24.06
2018-07-01T09:46:32.479Z,23.96
2018-07-01T09:47:42.462Z,23.73
2018-07-01T09:48:52.198Z,23.29
2018-07-01T09:50:02.180Z,23.04
2018-07-01T09:51:11.649Z,22.73
2018-07-01T09:52:21.647Z,22.23
2018-07-01T09:53:30.855Z,21.88
2018-07-01T09:54:40.593Z,21.96
2018-07-01T09:55:50.323Z,22.12
2018-07-01T09:57:00.064Z,22.3
2018-07-01T09:58:10.116Z,22.58
2018-07-01T09:59:20.112Z,22.65
2018-07-01T10:00:29.851Z,22.91
2018-07-01T10:01:39.563Z,23.06
2018-07-01T10:02:49.550Z,23.32
2018-07-01T10:03:59.273Z,23.47
2018-07-01T10:05:09.248Z,23.64
2018-07-01T10:06:18.975Z,23.59
2018-07-01T10:07:28.963Z,23.56
2018-07-01T10:08:38.696Z,23.25
2018-07-01T10:09:48.737Z,22.99
2018-07-01T10:10:58.715Z,22.96
2018-07-01T10:12:08.306Z,22.67
2018-07-01T10:13:18.293Z,22.52
2018-07-01T10:14:28.278Z,22.49
2018-07-01T10:15:38.251Z,22.56
2018-07-01T10:16:48.237Z,22.77
2018-07-01T10:17:58.232Z,23.01
2018-07-01T10:19:08.216Z,23.37
2018-07-01T10:20:17.932Z,23.66
2018-07-01T10:21:27.395Z,24.06
2018-07-01T10:22:37.375Z,24.44
2018-07-01T10:23:47.357Z,24.66
2018-07-01T10:24:57.331Z,24.82
2018-07-01T10:26:07.331Z,25.18
2018-07-01T10:27:16.803Z,25.12
2018-07-01T10:28:26.815Z,25.26
2018-07-01T10:29:36.802Z,25.68
2018-07-01T10:30:46.802Z,26.01
2018-07-01T10:31:56.793Z,25.99
2018-07-01T10:33:06.820Z,26.22
2018-07-01T10:34:16.812Z,26.44
2018-07-01T10:35:26.547Z,26.59
2018-07-01T10:36:36.534Z,26.71
2018-07-01T10:37:46.263Z,26.85
2018-07-01T10:38:56.264Z,26.64
2018-07-01T10:40:06.022Z,26.92
2018-07-01T10:41:16.112Z,27.28
2018-07-01T10:42:26.104Z,27.76
2018-07-01T10:43:36.119Z,27.97
2018-07-01T10:44:45.849Z,27.95
2018-07-01T10:45:56.058Z,28.25
2018-07-01T10:47:06.036Z,28.3
2018-07-01T10:48:16.015Z,27.97
2018-07-01T10:49:25.996Z,27.81
2018-07-01T10:50:35.714Z,27.35
2018-07-01T10:51:46.310Z,27.29
2018-07-01T10:52:56.317Z,27.05
2018-07-01T10:54:06.292Z,26.86
2018-07-01T10:55:16.271Z,26.68
2018-07-01T10:56:26.251Z,26.48
2018-07-01T10:57:36.388Z,26.36
2018-07-01T10:58:46.514Z,26.19
2018-07-01T10:59:56.499Z,25.88
2018-07-01T11:01:06.211Z,25.81
2018-07-01T11:02:16.197Z,25.63
2018-07-01T11:03:26.206Z,25.41
2018-07-01T11:04:36.192Z,25.37
2018-07-01T11:05:45.912Z,25.4
2018-07-01T11:06:55.921Z,25.29
2018-07-01T11:08:05.865Z,25.19
2018-07-01T11:09:15.852Z,25.19
2018-07-01T11:10:25.571Z,25.06
2018-07-01T11:11:35.609Z,25.04
2018-07-01T11:12:45.759Z,25.14
2018-07-01T11:13:55.747Z,25.34
2018-07-01T11:15:05.719Z,25.48
2018-07-01T11:16:15.458Z,25.63
2018-07-01T11:17:25.438Z,25.76
2018-07-01T11:18:34.905Z,25.83
2018-07-01T11:19:44.623Z,25.96
2018-07-01T11:20:54.610Z,25.81
2018-07-01T11:22:04.601Z,25.63
2018-07-01T11:23:14.606Z,25.3
2018-07-01T11:24:24.595Z,25.36
2018-07-01T11:25:34.315Z,25.51
2018-07-01T11:26:44.540Z,25.88
2018-07-01T11:27:55.032Z,26.18
2018-07-01T11:29:05.034Z,26.33
2018-07-01T11:30:14.758Z,26.45
2018-07-01T11:31:24.490Z,26.34
2018-07-01T11:32:33.950Z,25.91
2018-07-01T11:33:44.009Z,25.88
2018-07-01T11:34:53.991Z,25.98
2018-07-01T11:36:04.094Z,26.22
2018-07-01T11:37:13.815Z,26.36
2018-07-01T11:38:23.882Z,26.45
2018-07-01T11:39:33.879Z,26.41
2018-07-01T11:40:43.621Z,26.51
2018-07-01T11:41:53.612Z,26.74
2018-07-01T11:43:03.601Z,27.03
2018-07-01T11:44:13.587Z,27.19
2018-07-01T11:45:23.571Z,27.58
2018-07-01T11:46:33.566Z,27.85
2018-07-01T11:47:43.557Z,27.9
2018-07-01T11:48:53.542Z,28.13
2018-07-01T11:50:03.521Z,28.33
2018-07-01T11:51:12.991Z,28.23
2018-07-01T11:52:23.119Z,28.52
2018-07-01T11:53:33.003Z,28.77
2018-07-01T11:54:42.977Z,28.45
2018-07-01T11:55:52.728Z,28.31
2018-07-01T11:57:02.712Z,28.18
2018-07-01T11:58:12.837Z,27.67
2018-07-01T11:59:22.880Z,27.41
2018-07-01T12:00:32.871Z,27.3
2018-07-01T12:01:42.868Z,27.33
2018-07-01T12:02:52.910Z,26.66
2018-07-01T12:04:02.906Z,26.33
2018-07-01T12:05:22.007Z,26.36
2018-07-01T12:06:32.180Z,26.56
2018-07-01T12:07:41.903Z,26.81
2018-07-01T12:08:51.878Z,27.07
2018-07-01T12:10:01.860Z,26.68
2018-07-01T12:11:11.854Z,26.78
2018-07-01T12:12:21.598Z,26.64
2018-07-01T12:13:31.324Z,26.48
2018-07-01T12:14:41.319Z,26.41
2018-07-01T12:15:51.351Z,26.29
2018-07-01T12:17:01.340Z,26.41
2018-07-01T12:18:11.069Z,26.76
2018-07-01T12:19:21.044Z,27.11
2018-07-01T12:20:31.023Z,27.34
2018-07-01T12:21:41.019Z,27.53
2018-07-01T12:22:51.012Z,27.55
2018-07-01T12:24:00.989Z,27.58
2018-07-01T12:25:10.978Z,27.79
2018-07-01T12:26:20.991Z,27.72
2018-07-01T12:27:31.004Z,27.78
2018-07-01T12:28:41.125Z,27.53
2018-07-01T12:29:51.227Z,27.4
2018-07-01T12:31:01.223Z,27.15
2018-07-01T12:32:10.701Z,26.98
2018-07-01T12:33:20.421Z,26.86
2018-07-01T12:34:30.165Z,26.78
2018-07-01T12:35:39.895Z,26.83
2018-07-01T12:36:49.873Z,27.19
2018-07-01T12:37:59.597Z,27.47
2018-07-01T12:39:09.592Z,27.61
2018-07-01T12:40:19.592Z,27.82
2018-07-01T12:41:29.575Z,27.95
2018-07-01T12:42:39.583Z,28.4
2018-07-01T12:43:49.053Z,28.67
2018-07-01T12:44:59.036Z,28.72
2018-07-01T12:46:08.501Z,29.1
2018-07-01T12:47:18.226Z,29.43
2018-07-01T12:48:28.195Z,29.44
2018-07-01T12:49:37.932Z,29.71
2018-07-01T12:50:47.917Z,29.92
2018-07-01T12:51:57.906Z,30.05
2018-07-01T12:53:07.642Z,29.83
2018-07-01T12:54:17.634Z,29.84
2018-07-01T12:55:27.353Z,30.05
2018-07-01T12:56:37.077Z,30.36
2018-07-01T12:57:47.016Z,30.93
2018-07-01T12:58:57.038Z,31.3
2018-07-01T13:00:06.774Z,31.57
2018-07-01T13:01:16.510Z,31.17
2018-07-01T13:02:26.607Z,31.08
2018-07-01T13:03:36.758Z,30.46
2018-07-01T13:04:46.744Z,30.26
2018-07-01T13:05:56.466Z,30.29
2018-07-01T13:07:06.505Z,30.24
2018-07-01T13:08:16.299Z,30.32
2018-07-01T13:09:26.142Z,30.4
2018-07-01T13:10:36.120Z,30.54
2018-07-01T13:11:46.125Z,30.52
2018-07-01T13:12:56.120Z,29.96
2018-07-01T13:14:06.120Z,29.61
2018-07-01T13:15:15.853Z,29.15
2018-07-01T13:16:25.582Z,28.84
2018-07-01T13:17:35.056Z,28.8
2018-07-01T13:18:45.057Z,28.34
2018-07-01T13:19:55.064Z,28.22
2018-07-01T13:21:05.060Z,28.23
2018-07-01T13:22:15.064Z,28.08
2018-07-01T13:23:25.057Z,27.85
2018-07-01T13:24:35.034Z,27.29
2018-07-01T13:25:45.116Z,27.1
2018-07-01T13:26:54.852Z,27.1
2018-07-01T13:28:04.849Z,27.1
2018-07-01T13:29:14.610Z,26.86
2018-07-01T13:30:24.338Z,26.83
2018-07-01T13:31:34.124Z,26.89
2018-07-01T13:32:44.119Z,26.52
2018-07-01T13:33:54.096Z,26.37
2018-07-01T13:35:03.826Z,26.48
2018-07-01T13:36:13.811Z,26.45
2018-07-01T13:37:23.552Z,26.41
2018-07-01T13:38:33.526Z,26.34
2018-07-01T13:39:43.250Z,26.42
2018-07-01T13:40:52.986Z,26.45
2018-07-01T13:42:02.710Z,26.59
2018-07-01T13:43:12.438Z,26.49
2018-07-01T13:44:22.166Z,26.56
2018-07-01T13:45:32.134Z,26.66
2018-07-01T13:46:41.592Z,26.82
2018-07-01T13:47:51.325Z,27.05
2018-07-01T13:49:01.297Z,27.3
2018-07-01T13:50:11.312Z,27.6
2018-07-01T13:51:21.029Z,27.88
2018-07-01T13:52:31.015Z,27.88
2018-07-01T13:53:40.737Z,27.97
2018-07-01T13:54:50.721Z,27.75
2018-07-01T13:56:00.566Z,27.76
2018-07-01T13:57:10.992Z,27.33
2018-07-01T13:58:21.134Z,27.34
2018-07-01T13:59:31.117Z,27.18
2018-07-01T14:00:40.849Z,26.96
2018-07-01T14:01:50.833Z,26.76
2018-07-01T14:03:00.819Z,26.79
2018-07-01T14:04:11.130Z,26.81
2018-07-01T14:05:21.445Z,26.73
2018-07-01T14:06:31.620Z,26.68
2018-07-01T14:07:41.746Z,26.7
2018-07-01T14:08:51.912Z,26.74
2018-07-01T14:10:01.641Z,26.92
2018-07-01T14:11:11.374Z,27.07
2018-07-01T14:12:21.380Z,27.34
2018-07-01T14:13:31.106Z,27.48
2018-07-01T14:14:40.819Z,27.91
2018-07-01T14:15:50.794Z,28.1
2018-07-01T14:17:00.780Z,28.47
2018-07-01T14:18:10.769Z,28.75
2018-07-01T14:19:20.760Z,28.74
2018-07-01T14:20:30.733Z,29
2018-07-01T14:21:40.461Z,29.35
2018-07-01T14:22:50.453Z,29.65
2018-07-01T14:24:00.186Z,29.92
2018-07-01T14:25:09.650Z,30.1
2018-07-01T14:26:19.117Z,30.52
2018-07-01T14:27:28.571Z,30.86
2018-07-01T14:28:38.573Z,30.73
2018-07-01T14:29:48.662Z,30.74
2018-07-01T14:30:58.672Z,30.74
2018-07-01T14:32:08.670Z,30.96
2018-07-01T14:33:18.764Z,31.11
2018-07-01T14:34:28.247Z,31.3
2018-07-01T14:35:38.492Z,31.15
2018-07-01T14:36:48.298Z,30.71
2018-07-01T14:37:58.277Z,30.48
2018-07-01T14:39:08.004Z,30.18
2018-07-01T14:40:17.989Z,29.87
2018-07-01T14:41:27.985Z,29.57
2018-07-01T14:42:37.713Z,29.16
2018-07-01T14:43:47.917Z,28.72
2018-07-01T14:44:57.388Z,28.7
2018-07-01T14:46:07.383Z,28.59
2018-07-01T14:47:17.392Z,28.08
2018-07-01T14:48:27.387Z,27.68
2018-07-01T14:49:37.372Z,27.38
2018-07-01T14:50:47.350Z,27.08
2018-07-01T14:51:57.329Z,26.79
2018-07-01T14:53:07.318Z,26.74
2018-07-01T14:54:17.340Z,26.42
2018-07-01T14:55:27.326Z,26.19
2018-07-01T14:56:37.295Z,25.95
2018-07-01T14:57:47.005Z,25.96
2018-07-01T14:58:57.006Z,26.03
2018-07-01T15:00:06.729Z,25.92
2018-07-01T15:01:16.278Z,25.86
2018-07-01T15:02:26.450Z,25.71
2018-07-01T15:03:36.458Z,25.83
2018-07-01T15:04:46.456Z,25.91